createdAt,value
2023-05-29T00:00:46.447Z,5651.00
2023-05-29T00:01:46.741Z,5525.00
2023-05-29T00:02:46.811Z,5494.00
2023-05-29T00:03:47.100Z,5438.00
2023-05-29T00:04:47.039Z,5400.00
2023-05-29T00:05:47.174Z,5457.00
2023-05-29T00:06:47.318Z,5475.00
2023-05-29T00:07:47.495Z,5418.00
2023-05-29T00:08:47.612Z,5495.00
2023-05-29T00:09:48.533Z,5538.00
2023-05-29T00:10:47.898Z,5560.00
2023-05-29T00:11:48.054Z,5575.00
2023-05-29T00:12:48.187Z,5624.00
2023-05-29T00:13:48.350Z,5608.00
2023-05-29T00:14:48.479Z,5559.00
2023-05-29T00:15:48.645Z,5544.00
2023-05-29T00:16:48.932Z,5481.00
2023-05-29T00:17:48.950Z,5456.00
2023-05-29T00:18:49.044Z,5490.00
2023-05-29T00:19:49.191Z,5490.00
2023-05-29T00:20:49.556Z,5459.00
2023-05-29T00:21:49.503Z,5492.00
2023-05-29T00:22:49.657Z,5450.00
2023-05-29T00:23:49.850Z,5427.00
2023-05-29T00:24:50.097Z,5432.00
2023-05-29T00:25:50.191Z,5455.00
2023-05-29T00:26:50.449Z,5468.00
2023-05-29T00:27:50.669Z,5452.00
2023-05-29T00:28:53.547Z,5480.00
2023-05-29T00:29:50.875Z,5460.00
2023-05-29T00:30:51.018Z,5477.00
2023-05-29T00:31:51.214Z,5488.00
2023-05-29T00:32:51.362Z,5469.00
2023-05-29T00:33:51.432Z,5440.00
2023-05-29T00:34:51.575Z,5426.00
2023-05-29T00:35:51.757Z,5402.00
2023-05-29T00:36:51.915Z,5327.00
2023-05-29T00:37:51.993Z,5366.00
2023-05-29T00:38:52.218Z,5389.00
2023-05-29T00:39:52.290Z,5256.00
2023-05-29T00:40:52.430Z,5307.00
2023-05-29T00:41:52.599Z,5338.00
2023-05-29T00:42:52.823Z,5351.00
2023-05-29T00:43:52.986Z,5367.00
2023-05-29T00:44:53.084Z,5350.00
2023-05-29T00:45:53.276Z,5366.00
2023-05-29T00:46:53.406Z,5375.00
2023-05-29T00:47:53.607Z,5343.00
2023-05-29T00:48:53.714Z,5297.00
2023-05-29T00:49:53.879Z,5289.00
2023-05-29T00:50:54.301Z,5329.00
2023-05-29T00:51:54.183Z,5317.00
2023-05-29T00:52:54.336Z,5304.00
2023-05-29T00:53:54.527Z,5284.00
2023-05-29T00:54:54.631Z,5239.00
2023-05-29T00:55:54.816Z,5239.00
2023-05-29T00:56:54.937Z,5243.00
2023-05-29T00:57:55.103Z,5232.00
2023-05-29T00:58:55.238Z,5200.00
2023-05-29T00:59:55.410Z,5213.00
2023-05-29T01:00:55.741Z,5195.00
2023-05-29T01:01:55.704Z,5156.00
2023-05-29T01:02:55.942Z,5214.00
2023-05-29T01:03:55.983Z,5255.00
2023-05-29T01:04:56.131Z,5282.00
2023-05-29T01:05:56.298Z,5269.00
2023-05-29T01:06:56.441Z,5303.00
2023-05-29T01:07:56.593Z,5326.00
2023-05-29T01:08:57.005Z,5327.00
2023-05-29T01:09:56.897Z,5330.00
2023-05-29T01:10:57.077Z,5359.00
2023-05-29T01:11:57.210Z,5370.00
2023-05-29T01:12:57.556Z,5356.00
2023-05-29T01:13:57.495Z,5330.00
2023-05-29T01:14:57.651Z,5300.00
2023-05-29T01:15:57.837Z,5277.00
2023-05-29T01:16:58.552Z,5206.00
2023-05-29T01:17:58.274Z,5171.00
2023-05-29T01:18:58.513Z,5193.00
2023-05-29T01:19:58.636Z,5200.00
2023-05-29T01:20:59.139Z,5186.00
2023-05-29T01:21:59.053Z,5198.00
2023-05-29T01:22:59.287Z,5196.00
2023-05-29T01:23:59.441Z,5235.00
2023-05-29T01:24:59.655Z,5302.00
2023-05-29T01:25:59.864Z,5344.00
2023-05-29T01:27:00.137Z,5330.00
2023-05-29T01:28:00.250Z,5321.00
2023-05-29T01:29:01.172Z,5303.00
2023-05-29T01:30:00.639Z,5299.00
2023-05-29T01:31:00.856Z,5300.00
2023-05-29T01:32:01.186Z,5335.00
2023-05-29T01:33:01.301Z,5368.00
2023-05-29T01:34:01.417Z,5330.00
2023-05-29T01:35:01.621Z,5302.00
2023-05-29T01:36:01.841Z,5283.00
2023-05-29T01:37:02.042Z,5275.00
2023-05-29T01:38:02.245Z,5309.00
2023-05-29T01:39:02.456Z,5323.00
2023-05-29T01:40:02.646Z,5312.00
2023-05-29T01:41:02.854Z,5324.00
2023-05-29T01:42:03.042Z,5373.00
2023-05-29T01:43:03.242Z,5365.00
2023-05-29T01:44:03.445Z,5388.00
2023-05-29T01:45:03.643Z,5418.00
2023-05-29T01:46:03.873Z,5381.00
2023-05-29T01:47:04.081Z,5290.00
2023-05-29T01:48:04.239Z,5291.00
2023-05-29T01:49:04.433Z,5350.00
2023-05-29T01:50:04.666Z,5286.00
2023-05-29T01:51:04.847Z,5287.00
2023-05-29T01:52:05.052Z,5276.00
2023-05-29T01:53:05.267Z,5216.00
2023-05-29T01:54:05.456Z,5220.00
2023-05-29T01:55:05.684Z,5122.00
2023-05-29T01:56:05.907Z,5043.00
2023-05-29T01:57:06.117Z,4929.00
2023-05-29T01:58:06.326Z,4914.00
2023-05-29T01:59:06.540Z,4992.00
2023-05-29T02:00:06.757Z,5054.00
2023-05-29T02:01:06.994Z,5052.00
2023-05-29T02:02:07.192Z,5103.00
2023-05-29T02:03:07.500Z,5174.00
2023-05-29T02:04:07.676Z,5208.00
2023-05-29T02:05:07.827Z,5158.00
2023-05-29T02:06:08.094Z,5223.00
2023-05-29T02:07:08.257Z,5190.00
2023-05-29T02:08:08.471Z,5140.00
2023-05-29T02:09:08.706Z,5082.00
2023-05-29T02:10:08.883Z,5139.00
2023-05-29T02:11:09.090Z,5141.00
2023-05-29T02:12:10.077Z,5108.00
2023-05-29T02:13:09.512Z,5127.00
2023-05-29T02:14:09.726Z,5154.00
2023-05-29T02:15:09.948Z,5173.00
2023-05-29T02:16:10.182Z,5178.00
2023-05-29T02:17:11.068Z,5202.00
2023-05-29T02:18:10.659Z,5232.00
2023-05-29T02:19:10.821Z,5207.00
2023-05-29T02:20:11.090Z,5244.00
2023-05-29T02:21:11.318Z,5248.00
2023-05-29T02:22:11.464Z,5158.00
2023-05-29T02:23:11.674Z,5158.00
2023-05-29T02:24:11.890Z,5227.00
2023-05-29T02:25:12.169Z,5244.00
2023-05-29T02:26:12.368Z,5188.00
2023-05-29T02:27:12.517Z,5149.00
2023-05-29T02:28:12.746Z,5111.00
2023-05-29T02:29:12.981Z,5152.00
2023-05-29T02:30:13.192Z,5165.00
2023-05-29T02:31:13.404Z,5098.00
2023-05-29T02:32:13.676Z,5029.00
2023-05-29T02:33:13.838Z,5043.00
2023-05-29T02:34:14.049Z,5060.00
2023-05-29T02:35:14.273Z,5056.00
2023-05-29T02:36:14.522Z,5030.00
2023-05-29T02:37:14.687Z,5097.00
2023-05-29T02:38:14.909Z,5059.00
2023-05-29T02:39:15.270Z,5010.00
2023-05-29T02:40:15.360Z,5039.00
2023-05-29T02:41:15.620Z,5097.00
2023-05-29T02:42:15.811Z,5136.00
2023-05-29T02:43:16.048Z,5113.00
2023-05-29T02:44:16.284Z,5121.00
2023-05-29T02:45:16.526Z,5148.00
2023-05-29T02:46:16.800Z,5122.00
2023-05-29T02:47:16.951Z,5190.00
2023-05-29T02:48:17.171Z,5174.00
2023-05-29T02:49:17.384Z,5125.00
2023-05-29T02:50:17.597Z,5152.00
2023-05-29T02:51:17.802Z,5203.00
2023-05-29T02:52:18.046Z,5211.00
2023-05-29T02:53:18.253Z,5186.00
2023-05-29T02:54:18.530Z,5164.00
2023-05-29T02:55:18.655Z,5171.00
2023-05-29T02:56:18.879Z,5191.00
2023-05-29T02:57:19.096Z,5177.00
2023-05-29T02:58:19.311Z,5113.00
2023-05-29T02:59:19.547Z,5041.00
2023-05-29T03:00:22.585Z,5011.00
2023-05-29T03:01:19.967Z,5013.00
2023-05-29T03:02:20.139Z,4975.00
2023-05-29T03:03:20.341Z,4911.00
2023-05-29T03:04:20.417Z,4923.00
2023-05-29T03:05:20.602Z,4876.00
2023-05-29T03:06:20.762Z,4837.00
2023-05-29T03:07:20.927Z,4828.00
2023-05-29T03:08:21.091Z,4857.00
2023-05-29T03:09:21.237Z,4870.00
2023-05-29T03:10:21.449Z,4877.00
2023-05-29T03:11:21.575Z,4897.00
2023-05-29T03:12:21.836Z,4842.00
2023-05-29T03:13:21.911Z,4866.00
2023-05-29T03:14:22.074Z,4910.00
2023-05-29T03:15:22.241Z,4914.00
2023-05-29T03:16:22.429Z,4937.00
2023-05-29T03:17:22.638Z,4935.00
2023-05-29T03:18:22.730Z,4954.00
2023-05-29T03:19:22.892Z,4948.00
2023-05-29T03:20:23.094Z,4882.00
2023-05-29T03:21:23.223Z,4904.00
2023-05-29T03:22:23.404Z,4902.00
2023-05-29T03:23:25.991Z,4836.00
2023-05-29T03:24:23.724Z,4796.00
2023-05-29T03:25:23.895Z,4754.00
2023-05-29T03:26:24.040Z,4749.00
2023-05-29T03:27:24.223Z,4762.00
2023-05-29T03:28:24.388Z,4803.00
2023-05-29T03:29:24.556Z,4839.00
2023-05-29T03:30:24.735Z,4904.00
2023-05-29T03:31:24.902Z,4921.00
2023-05-29T03:32:25.080Z,4889.00
2023-05-29T03:33:25.313Z,4843.00
2023-05-29T03:34:25.404Z,4876.00
2023-05-29T03:35:25.585Z,4864.00
2023-05-29T03:36:25.743Z,4850.00
2023-05-29T03:37:25.901Z,4888.00
2023-05-29T03:38:26.660Z,4920.00
2023-05-29T03:39:26.241Z,4939.00
2023-05-29T03:40:26.403Z,4915.00
2023-05-29T03:41:26.579Z,4890.00
2023-05-29T03:42:26.755Z,4905.00
2023-05-29T03:43:26.916Z,4879.00
2023-05-29T03:44:27.099Z,4832.00
2023-05-29T03:45:28.104Z,4881.00
2023-05-29T03:46:27.420Z,4942.00
2023-05-29T03:47:27.624Z,4944.00
2023-05-29T03:48:27.805Z,4827.00
2023-05-29T03:49:27.980Z,4810.00
2023-05-29T03:50:28.101Z,4789.00
2023-05-29T03:51:28.263Z,4774.00
2023-05-29T03:52:28.504Z,4765.00
2023-05-29T03:53:28.617Z,4745.00
2023-05-29T03:54:28.780Z,4708.00
2023-05-29T03:55:29.046Z,4680.00
2023-05-29T03:56:29.125Z,4707.00
2023-05-29T03:57:29.298Z,4769.00
2023-05-29T03:58:29.461Z,4780.00
2023-05-29T03:59:29.624Z,4839.00
2023-05-29T04:00:29.903Z,4885.00
2023-05-29T04:01:30.060Z,4895.00
2023-05-29T04:02:30.411Z,4900.00
2023-05-29T04:03:30.666Z,4881.00
2023-05-29T04:04:31.223Z,4847.00
2023-05-29T04:05:30.959Z,4857.00
2023-05-29T04:06:31.195Z,4907.00
2023-05-29T04:07:31.432Z,4963.00
2023-05-29T04:08:31.670Z,4945.00
2023-05-29T04:09:31.891Z,4888.00
2023-05-29T04:10:32.155Z,4875.00
2023-05-29T04:11:32.363Z,4865.00
2023-05-29T04:12:32.582Z,4906.00
2023-05-29T04:13:32.807Z,4933.00
2023-05-29T04:14:33.034Z,4963.00
2023-05-29T04:15:33.246Z,5035.00
2023-05-29T04:16:33.496Z,5033.00
2023-05-29T04:17:33.744Z,5033.00
2023-05-29T04:18:33.918Z,4999.00
2023-05-29T04:19:34.121Z,4937.00
2023-05-29T04:20:34.390Z,4914.00
2023-05-29T04:21:34.552Z,4844.00
2023-05-29T04:22:34.764Z,4842.00
2023-05-29T04:23:34.997Z,4846.00
2023-05-29T04:24:35.203Z,4805.00
2023-05-29T04:25:35.609Z,4760.00
2023-05-29T04:26:35.667Z,4761.00
2023-05-29T04:27:36.602Z,4762.00
2023-05-29T04:28:36.132Z,4736.00
2023-05-29T04:29:36.360Z,4747.00
2023-05-29T04:30:36.726Z,4798.00
2023-05-29T04:31:37.712Z,4800.00
2023-05-29T04:32:37.070Z,4788.00
2023-05-29T04:33:37.283Z,4829.00
2023-05-29T04:34:37.530Z,4789.00
2023-05-29T04:35:37.763Z,4711.00
2023-05-29T04:36:37.997Z,4671.00
2023-05-29T04:37:38.224Z,4635.00
2023-05-29T04:38:38.454Z,4665.00
2023-05-29T04:39:38.753Z,4704.00
2023-05-29T04:40:38.849Z,4608.00
2023-05-29T04:41:39.059Z,4554.00
2023-05-29T04:42:39.218Z,4489.00
2023-05-29T04:43:39.434Z,4451.00
2023-05-29T04:44:39.677Z,4465.00
2023-05-29T04:45:39.870Z,4496.00
2023-05-29T04:46:40.147Z,4578.00
2023-05-29T04:47:40.350Z,4588.00
2023-05-29T04:48:40.555Z,4538.00
2023-05-29T04:49:40.762Z,4511.00
2023-05-29T04:50:41.070Z,4474.00
2023-05-29T04:51:41.220Z,4479.00
2023-05-29T04:52:41.445Z,4482.00
2023-05-29T04:53:41.673Z,4521.00
2023-05-29T04:54:42.610Z,4523.00
2023-05-29T04:55:42.128Z,4553.00
2023-05-29T04:56:42.328Z,4598.00
2023-05-29T04:57:42.484Z,4586.00
2023-05-29T04:58:42.699Z,4596.00
2023-05-29T04:59:43.028Z,4568.00
2023-05-29T05:00:43.129Z,4509.00
2023-05-29T05:01:43.423Z,4488.00
2023-05-29T05:02:43.608Z,4510.00
2023-05-29T05:03:43.833Z,4440.00
2023-05-29T05:04:44.022Z,4396.00
2023-05-29T05:05:44.254Z,4374.00
2023-05-29T05:06:44.628Z,4394.00
2023-05-29T05:07:44.684Z,4361.00
2023-05-29T05:08:44.903Z,4336.00
2023-05-29T05:09:45.129Z,4311.00
2023-05-29T05:10:45.335Z,4305.00
2023-05-29T05:11:45.539Z,4176.00
2023-05-29T05:12:46.137Z,4084.00
2023-05-29T05:13:45.992Z,4124.00
2023-05-29T05:14:46.219Z,4123.00
2023-05-29T05:15:46.414Z,4108.00
2023-05-29T05:16:46.779Z,4101.00
2023-05-29T05:17:46.774Z,4090.00
2023-05-29T05:18:47.125Z,4093.00
2023-05-29T05:19:47.115Z,4107.00
2023-05-29T05:20:47.416Z,4209.00
2023-05-29T05:21:47.462Z,4238.00
2023-05-29T05:22:47.645Z,4175.00
2023-05-29T05:23:57.253Z,4124.00
2023-05-29T05:24:49.000Z,4126.00
2023-05-29T05:25:48.158Z,4126.00
2023-05-29T05:26:49.125Z,4091.00
2023-05-29T05:27:48.590Z,4048.00
2023-05-29T05:28:48.712Z,3968.00
2023-05-29T05:29:48.884Z,3910.00
2023-05-29T05:30:49.085Z,3843.00
2023-05-29T05:31:49.260Z,3847.00
2023-05-29T05:32:49.421Z,3867.00
2023-05-29T05:33:49.566Z,3855.00
2023-05-29T05:34:49.741Z,3789.00
2023-05-29T05:35:49.977Z,3728.00
2023-05-29T05:36:50.124Z,3671.00
2023-05-29T05:37:50.229Z,3615.00
2023-05-29T05:38:50.384Z,3605.00
2023-05-29T05:39:50.615Z,3602.00
2023-05-29T05:40:50.732Z,3690.00
2023-05-29T05:41:50.938Z,3729.00
2023-05-29T05:42:51.644Z,3820.00
2023-05-29T05:43:52.148Z,3899.00
2023-05-29T05:44:51.595Z,3936.00
2023-05-29T05:45:51.829Z,3911.00
2023-05-29T05:46:51.998Z,3902.00
2023-05-29T05:47:52.209Z,3946.00
2023-05-29T05:48:52.408Z,3913.00
2023-05-29T05:49:52.646Z,3923.00
2023-05-29T05:50:52.965Z,3896.00
2023-05-29T05:51:53.011Z,3942.00
2023-05-29T05:52:53.218Z,3996.00
2023-05-29T05:53:53.421Z,4032.00
2023-05-29T05:54:53.683Z,4106.00
2023-05-29T05:55:53.817Z,4179.00
2023-05-29T05:56:54.000Z,4221.00
2023-05-29T05:57:54.193Z,4235.00
2023-05-29T05:58:54.389Z,4240.00
2023-05-29T05:59:54.571Z,4296.00
2023-05-29T06:00:54.925Z,4221.00
2023-05-29T06:01:54.985Z,4055.00
2023-05-29T06:02:55.267Z,3899.00
2023-05-29T06:03:55.481Z,3711.00
2023-05-29T06:04:55.568Z,3561.00
2023-05-29T06:05:55.729Z,3473.00
2023-05-29T06:06:55.908Z,3508.00
2023-05-29T06:07:56.101Z,3587.00
2023-05-29T06:08:56.335Z,3624.00
2023-05-29T06:09:56.500Z,3640.00
2023-05-29T06:10:56.846Z,3558.00
2023-05-29T06:11:56.862Z,3558.00
2023-05-29T06:12:58.642Z,3599.00
2023-05-29T06:13:57.204Z,3674.00
2023-05-29T06:14:57.383Z,3740.00
2023-05-29T06:15:57.576Z,3825.00
2023-05-29T06:16:57.726Z,3904.00
2023-05-29T06:17:58.166Z,3887.00
2023-05-29T06:18:58.078Z,3947.00
2023-05-29T06:19:58.237Z,3823.00
2023-05-29T06:20:58.693Z,3798.00
2023-05-29T06:21:58.580Z,3790.00
2023-05-29T06:22:58.831Z,3847.00
2023-05-29T06:23:58.916Z,3813.00
2023-05-29T06:24:59.150Z,3782.00
2023-05-29T06:25:59.230Z,3747.00
2023-05-29T06:26:59.600Z,3635.00
2023-05-29T06:27:59.632Z,3591.00
2023-05-29T06:28:59.779Z,3680.00
2023-05-29T06:29:59.936Z,3732.00
2023-05-29T06:31:00.110Z,3828.00
2023-05-29T06:32:00.246Z,3905.00
2023-05-29T06:33:00.506Z,3879.00
2023-05-29T06:34:00.626Z,3820.00
2023-05-29T06:35:00.809Z,3790.00
2023-05-29T06:36:03.497Z,3845.00
2023-05-29T06:37:01.142Z,3890.00
2023-05-29T06:38:01.230Z,3811.00
2023-05-29T06:39:01.369Z,3782.00
2023-05-29T06:40:01.533Z,3759.00
2023-05-29T06:41:01.657Z,3666.00
2023-05-29T06:42:01.797Z,3688.00
2023-05-29T06:43:02.021Z,3636.00
2023-05-29T06:44:02.070Z,3582.00
2023-05-29T06:45:02.208Z,3588.00
2023-05-29T06:46:02.345Z,3595.00
2023-05-29T06:47:02.508Z,3594.00
2023-05-29T06:48:02.652Z,3606.00
2023-05-29T06:49:04.288Z,3362.00
2023-05-29T06:50:03.647Z,3278.00
2023-05-29T06:51:02.997Z,3334.00
2023-05-29T06:52:03.120Z,3389.00
2023-05-29T06:53:03.256Z,3461.00
2023-05-29T06:54:03.375Z,3518.00
2023-05-29T06:55:03.501Z,3553.00
2023-05-29T06:56:03.634Z,3545.00
2023-05-29T06:57:11.191Z,3602.00
2023-05-29T06:58:04.892Z,3602.00
2023-05-29T06:59:03.992Z,3526.00
2023-05-29T07:00:04.121Z,3593.00
2023-05-29T07:01:06.955Z,3596.00
2023-05-29T07:02:04.417Z,3606.00
2023-05-29T07:03:04.713Z,3615.00
2023-05-29T07:04:04.720Z,3571.00
2023-05-29T07:05:04.703Z,3599.00
2023-05-29T07:06:04.824Z,3544.00
2023-05-29T07:07:04.929Z,3567.00
2023-05-29T07:08:05.041Z,3611.00
2023-05-29T07:09:05.157Z,3567.00
2023-05-29T07:10:05.287Z,3299.00
2023-05-29T07:11:05.385Z,3122.00
2023-05-29T07:12:05.498Z,3157.00
2023-05-29T07:13:05.750Z,3248.00
2023-05-29T07:14:05.726Z,3261.00
2023-05-29T07:15:05.841Z,3339.00
2023-05-29T07:16:13.606Z,3344.00
2023-05-29T07:17:07.093Z,2815.00
2023-05-29T07:18:06.187Z,2561.00
2023-05-29T07:19:06.661Z,2704.00
2023-05-29T07:20:06.512Z,2812.00
2023-05-29T07:21:06.534Z,2758.00
2023-05-29T07:22:06.601Z,2657.00
2023-05-29T07:23:06.707Z,2567.00
2023-05-29T07:24:06.838Z,2535.00
2023-05-29T07:25:06.943Z,2620.00
2023-05-29T07:26:07.030Z,2844.00
2023-05-29T07:27:07.153Z,2818.00
2023-05-29T07:28:14.619Z,2835.00
2023-05-29T07:29:08.373Z,2838.00
2023-05-29T07:30:07.477Z,2858.00
2023-05-29T07:31:08.572Z,2842.00
2023-05-29T07:32:07.698Z,2801.00
2023-05-29T07:33:07.795Z,2634.00
2023-05-29T07:34:07.888Z,2481.00
2023-05-29T07:35:07.997Z,2380.00
2023-05-29T07:36:08.110Z,2413.00
2023-05-29T07:37:08.236Z,2792.00
2023-05-29T07:38:08.341Z,2783.00
2023-05-29T07:39:08.424Z,2647.00
2023-05-29T07:40:08.553Z,2510.00
2023-05-29T07:41:08.662Z,2475.00
2023-05-29T07:42:08.748Z,2439.00
2023-05-29T07:43:08.851Z,2439.00
2023-05-29T07:44:08.947Z,2509.00
2023-05-29T07:45:09.040Z,2666.00
2023-05-29T07:46:09.241Z,2635.00
2023-05-29T07:47:09.232Z,2407.00
2023-05-29T07:48:09.403Z,2307.00
2023-05-29T07:49:09.443Z,2214.00
2023-05-29T07:50:09.540Z,2041.00
2023-05-29T07:51:09.640Z,1963.00
2023-05-29T07:52:09.732Z,1939.00
2023-05-29T07:53:09.846Z,1907.00
2023-05-29T07:54:09.992Z,2144.00
2023-05-29T07:55:09.996Z,2195.00
2023-05-29T07:56:10.105Z,1959.00
2023-05-29T07:57:10.210Z,1602.00
2023-05-29T07:58:11.863Z,1447.00
2023-05-29T07:59:10.437Z,1307.00
2023-05-29T08:00:10.564Z,1167.00
2023-05-29T08:01:10.642Z,1052.00
2023-05-29T08:02:10.735Z,974.00
2023-05-29T08:03:10.937Z,1033.00
2023-05-29T08:04:10.941Z,1207.00
2023-05-29T08:05:11.046Z,1265.00
2023-05-29T08:06:11.081Z,1165.00
2023-05-29T08:07:11.171Z,1083.00
2023-05-29T08:08:11.281Z,989.00
2023-05-29T08:09:11.405Z,788.00
2023-05-29T08:10:11.409Z,639.00
2023-05-29T08:11:11.489Z,602.00
2023-05-29T08:12:11.565Z,590.00
2023-05-29T08:13:11.665Z,599.00
2023-05-29T08:14:11.721Z,578.00
2023-05-29T08:15:11.805Z,543.00
2023-05-29T08:16:11.980Z,500.00
2023-05-29T08:17:11.984Z,513.00
2023-05-29T08:18:12.100Z,568.00
2023-05-29T08:19:12.131Z,610.00
2023-05-29T08:20:12.257Z,567.00
2023-05-29T08:21:12.312Z,496.00
2023-05-29T08:22:12.372Z,501.00
2023-05-29T08:23:13.177Z,503.00
2023-05-29T08:24:12.589Z,499.00
2023-05-29T08:25:12.599Z,414.00
2023-05-29T08:26:12.689Z,437.00
2023-05-29T08:27:12.759Z,503.00
2023-05-29T08:28:12.830Z,496.00
2023-05-29T08:29:12.904Z,511.00
2023-05-29T08:30:12.986Z,568.00
2023-05-29T08:31:13.114Z,587.00
2023-05-29T08:32:13.148Z,633.00
2023-05-29T08:33:13.228Z,630.00
2023-05-29T08:34:13.255Z,655.00
2023-05-29T08:35:13.369Z,721.00
2023-05-29T08:36:13.369Z,861.00
2023-05-29T08:37:13.451Z,688.00
2023-05-29T08:38:13.498Z,629.00
2023-05-29T08:39:13.553Z,600.00
2023-05-29T08:40:13.614Z,585.00
2023-05-29T08:41:13.679Z,664.00
2023-05-29T08:42:13.754Z,745.00
2023-05-29T08:43:13.795Z,784.00
2023-05-29T08:44:13.875Z,628.00
2023-05-29T08:45:13.929Z,526.00
2023-05-29T08:46:14.005Z,498.00
2023-05-29T08:47:14.066Z,498.00
2023-05-29T08:48:14.184Z,462.00
2023-05-29T08:49:14.191Z,500.00
2023-05-29T08:50:14.269Z,492.00
2023-05-29T08:51:14.332Z,511.00
2023-05-29T08:52:14.406Z,529.00
2023-05-29T08:53:14.463Z,548.00
2023-05-29T08:54:15.182Z,597.00
2023-05-29T08:55:14.610Z,713.00
2023-05-29T08:56:23.154Z,922.00
2023-05-29T08:57:15.728Z,881.00
2023-05-29T08:58:14.794Z,818.00
2023-05-29T08:59:14.814Z,659.00
2023-05-29T09:00:14.876Z,632.00
2023-05-29T09:01:14.962Z,645.00
2023-05-29T09:02:15.023Z,883.00
2023-05-29T09:03:15.207Z,866.00
2023-05-29T09:04:15.222Z,980.00
2023-05-29T09:05:15.217Z,811.00
2023-05-29T09:06:15.265Z,847.00
2023-05-29T09:07:15.319Z,960.00
2023-05-29T09:08:15.415Z,782.00
2023-05-29T09:09:15.497Z,625.00
2023-05-29T09:10:15.597Z,582.00
2023-05-29T09:11:16.230Z,610.00
2023-05-29T09:12:15.791Z,592.00
2023-05-29T09:13:15.973Z,597.00
2023-05-29T09:14:16.075Z,560.00
2023-05-29T09:15:16.144Z,600.00
2023-05-29T09:16:16.282Z,520.00
2023-05-29T09:17:16.392Z,526.00
2023-05-29T09:18:16.488Z,502.00
2023-05-29T09:19:16.563Z,503.00
2023-05-29T09:20:16.672Z,478.00
2023-05-29T09:21:16.733Z,482.00
2023-05-29T09:22:16.869Z,589.00
2023-05-29T09:23:16.918Z,730.00
2023-05-29T09:24:16.925Z,855.00
2023-05-29T09:25:17.026Z,612.00
2023-05-29T09:26:17.058Z,615.00
2023-05-29T09:27:17.139Z,598.00
2023-05-29T09:28:18.139Z,624.00
2023-05-29T09:29:18.275Z,620.00
2023-05-29T09:30:17.320Z,621.00
2023-05-29T09:31:17.374Z,612.00
2023-05-29T09:32:17.404Z,592.00
2023-05-29T09:33:17.452Z,602.00
2023-05-29T09:34:17.509Z,613.00
2023-05-29T09:35:17.520Z,614.00
2023-05-29T09:36:17.554Z,575.00
2023-05-29T09:37:18.455Z,541.00
2023-05-29T09:38:29.074Z,572.00
2023-05-29T09:39:18.645Z,562.00
2023-05-29T09:40:17.669Z,575.00
2023-05-29T09:41:17.696Z,557.00
2023-05-29T09:42:17.722Z,579.00
2023-05-29T09:43:17.776Z,631.00
2023-05-29T09:44:17.807Z,664.00
2023-05-29T09:45:17.819Z,715.00
2023-05-29T09:46:17.874Z,773.00
2023-05-29T09:47:17.871Z,669.00
2023-05-29T09:48:17.910Z,590.00
2023-05-29T09:49:17.930Z,576.00
2023-05-29T09:50:17.973Z,546.00
2023-05-29T09:51:17.996Z,516.00
2023-05-29T09:52:18.044Z,551.00
2023-05-29T09:53:18.103Z,532.00
2023-05-29T09:54:18.323Z,520.00
2023-05-29T09:55:18.412Z,521.00
2023-05-29T09:56:18.579Z,543.00
2023-05-29T09:57:18.820Z,609.00
2023-05-29T09:58:18.925Z,689.00
2023-05-29T09:59:20.311Z,663.00
2023-05-29T10:00:19.225Z,604.00
2023-05-29T10:01:19.276Z,628.00
2023-05-29T10:02:19.296Z,649.00
2023-05-29T10:03:19.457Z,565.00
2023-05-29T10:04:19.431Z,444.00
2023-05-29T10:05:19.494Z,445.00
2023-05-29T10:06:19.611Z,513.00
2023-05-29T10:07:19.623Z,631.00
2023-05-29T10:08:19.721Z,695.00
2023-05-29T10:09:20.720Z,692.00
2023-05-29T10:10:19.891Z,838.00
2023-05-29T10:11:19.976Z,783.00
2023-05-29T10:12:20.047Z,644.00
2023-05-29T10:13:20.172Z,610.00
2023-05-29T10:14:20.228Z,589.00
2023-05-29T10:15:20.274Z,575.00
2023-05-29T10:16:20.431Z,636.00
2023-05-29T10:17:20.422Z,665.00
2023-05-29T10:18:20.483Z,666.00
2023-05-29T10:19:20.537Z,838.00
2023-05-29T10:20:20.621Z,547.00
2023-05-29T10:21:20.742Z,432.00
2023-05-29T10:22:20.811Z,476.00
2023-05-29T10:23:20.816Z,575.00
2023-05-29T10:24:20.875Z,691.00
2023-05-29T10:25:20.949Z,641.00
2023-05-29T10:26:21.031Z,565.00
2023-05-29T10:27:21.779Z,510.00
2023-05-29T10:28:21.178Z,508.00
2023-05-29T10:29:21.211Z,436.00
2023-05-29T10:30:21.309Z,544.00
2023-05-29T10:31:21.315Z,559.00
2023-05-29T10:32:21.519Z,564.00
2023-05-29T10:33:21.420Z,534.00
2023-05-29T10:34:21.445Z,568.00
2023-05-29T10:35:21.555Z,493.00
2023-05-29T10:36:21.526Z,400.00
2023-05-29T10:37:21.558Z,400.00
2023-05-29T10:38:21.602Z,482.00
2023-05-29T10:39:21.638Z,499.00
2023-05-29T10:40:21.660Z,526.00
2023-05-29T10:41:21.699Z,554.00
2023-05-29T10:42:21.710Z,581.00
2023-05-29T10:43:21.736Z,642.00
2023-05-29T10:44:21.780Z,530.00
2023-05-29T10:45:21.798Z,501.00
2023-05-29T10:46:21.834Z,411.00
2023-05-29T10:47:22.726Z,419.00
2023-05-29T10:48:21.874Z,537.00
2023-05-29T10:49:21.937Z,652.00
2023-05-29T10:50:21.991Z,594.00
2023-05-29T10:51:21.992Z,592.00
2023-05-29T10:52:22.051Z,643.00
2023-05-29T10:53:22.044Z,634.00
2023-05-29T10:54:23.322Z,622.00
2023-05-29T10:55:22.109Z,609.00
2023-05-29T10:56:22.176Z,597.00
2023-05-29T10:57:22.165Z,536.00
2023-05-29T10:58:22.187Z,404.00
2023-05-29T10:59:22.175Z,522.00
2023-05-29T11:00:22.286Z,630.00
2023-05-29T11:01:22.247Z,736.00
2023-05-29T11:02:22.251Z,905.00
2023-05-29T11:03:22.332Z,1027.00
2023-05-29T11:04:22.260Z,1023.00
2023-05-29T11:05:22.277Z,1177.00
2023-05-29T11:06:22.270Z,920.00
2023-05-29T11:07:22.297Z,844.00
2023-05-29T11:08:22.318Z,664.00
2023-05-29T11:09:22.359Z,672.00
2023-05-29T11:10:22.393Z,648.00
2023-05-29T11:11:22.428Z,766.00
2023-05-29T11:12:22.473Z,597.00
2023-05-29T11:13:23.251Z,464.00
2023-05-29T11:14:22.530Z,530.00
2023-05-29T11:15:22.550Z,813.00
2023-05-29T11:16:22.562Z,931.00
2023-05-29T11:17:22.620Z,829.00
2023-05-29T11:18:22.637Z,858.00
2023-05-29T11:19:22.647Z,1054.00
2023-05-29T11:20:22.686Z,969.00
2023-05-29T11:21:22.663Z,994.00
2023-05-29T11:22:22.687Z,1080.00
2023-05-29T11:23:22.756Z,855.00
2023-05-29T11:24:22.690Z,1175.00
2023-05-29T11:25:22.715Z,1161.00
2023-05-29T11:26:22.715Z,1263.00
2023-05-29T11:27:22.732Z,1378.00
2023-05-29T11:28:22.756Z,1345.00
2023-05-29T11:29:23.250Z,1240.00
2023-05-29T11:30:22.756Z,1162.00
2023-05-29T11:31:22.790Z,1287.00
2023-05-29T11:32:22.756Z,1301.00
2023-05-29T11:33:22.767Z,1172.00
2023-05-29T11:34:22.766Z,1255.00
2023-05-29T11:35:22.753Z,1380.00
2023-05-29T11:36:23.744Z,1371.00
2023-05-29T11:37:22.785Z,1308.00
2023-05-29T11:38:22.792Z,1431.00
2023-05-29T11:39:23.743Z,1522.00
2023-05-29T11:40:23.749Z,1552.00
2023-05-29T11:41:22.864Z,1115.00
2023-05-29T11:42:23.257Z,1060.00
2023-05-29T11:43:22.955Z,1175.00
2023-05-29T11:44:22.954Z,792.00
2023-05-29T11:45:22.991Z,1075.00
2023-05-29T11:46:23.046Z,1067.00
2023-05-29T11:47:23.156Z,1029.00
2023-05-29T11:48:23.199Z,1100.00
2023-05-29T11:49:23.202Z,1073.00
2023-05-29T11:50:23.243Z,873.00
2023-05-29T11:51:23.267Z,867.00
2023-05-29T11:52:23.284Z,967.00
2023-05-29T11:53:24.262Z,1064.00
2023-05-29T11:54:24.268Z,1086.00
2023-05-29T11:55:23.332Z,1061.00
2023-05-29T11:56:23.313Z,947.00
2023-05-29T11:57:23.368Z,1106.00
2023-05-29T11:58:23.303Z,905.00
2023-05-29T11:59:23.287Z,1166.00
2023-05-29T12:00:23.254Z,1224.00
2023-05-29T12:01:23.760Z,1271.00
2023-05-29T12:02:23.243Z,1216.00
2023-05-29T12:03:23.225Z,868.00
2023-05-29T12:04:23.179Z,622.00
2023-05-29T12:05:23.242Z,673.00
2023-05-29T12:06:23.110Z,960.00
2023-05-29T12:07:23.079Z,1062.00
2023-05-29T12:08:23.054Z,991.00
2023-05-29T12:09:23.006Z,1171.00
2023-05-29T12:10:22.989Z,1067.00
2023-05-29T12:11:22.944Z,1043.00
2023-05-29T12:12:22.906Z,1049.00
2023-05-29T12:13:23.073Z,1207.00